Time;durP1;ratioP1;P1;durP2;ratioP2;P2;SDS_P1;SDS_P2;PMS_P1;PMS_P2;Temp;Humidity;BMP_temperature;BMP_pressure;BME280_temperature;BME280_humidity;BME280_pressure;Samples;Min_cycle;Max_cycle;Signal;HPM_P1;HPM_P2
2022/10/12 00:00:01;;;;;;;11.15;3.15;;;;;;;;;;4947035;28;20047;-71
2022/10/12 00:02:28;;;;;;;15.50;3.63;;;;;;;;;;4951238;28;20062;-71
2022/10/12 00:04:55;;;;;;;9.05;2.78;;;;;;;;;;4965675;28;20525;-71
2022/10/12 00:07:24;;;;;;;9.23;3.13;;;;;;;;;;4949585;28;20465;-71
2022/10/12 00:09:51;;;;;;;10.93;2.90;;;;;;;;;;4948474;28;20081;-71
2022/10/12 00:12:18;;;;;;;12.60;3.03;;;;;;;;;;4961214;28;20528;-71
2022/10/12 00:14:46;;;;;;;10.15;2.67;;;;;;;;;;4963770;28;20055;-71
2022/10/12 00:17:13;;;;;;;12.75;2.65;;;;;;;;;;4962296;28;20195;-71
2022/10/12 00:19:40;;;;;;;9.02;2.95;;;;;;;;;;4962706;28;20398;-71
2022/10/12 00:22:07;;;;;;;8.77;2.70;;;;;;;;;;4966855;28;20050;-71
2022/10/12 00:24:36;;;;;;;9.45;2.80;;;;;;;;;;4947407;28;20062;-71
2022/10/12 00:27:03;;;;;;;10.48;3.00;;;;;;;;;;4946700;28;20560;-71
2022/10/12 00:29:30;;;;;;;7.95;2.65;;;;;;;;;;4947667;28;20055;-71
2022/10/12 00:32:20;;;;;;;8.95;2.58;;;;;;;;;;4963465;28;20055;-71
2022/10/12 00:34:47;;;;;;;11.48;2.67;;;;;;;;;;4964010;28;20467;-71
2022/10/12 00:37:14;;;;;;;14.48;3.15;;;;;;;;;;4965914;28;20054;-71
2022/10/12 00:39:43;;;;;;;12.18;2.85;;;;;;;;;;4965893;28;20053;-71
2022/10/12 00:42:12;;;;;;;11.95;2.83;;;;;;;;;;4950472;28;20668;-71
2022/10/12 00:44:43;;;;;;;10.77;3.22;;;;;;;;;;4964187;28;20043;-71
2022/10/12 00:47:16;;;;;;;13.05;3.00;;;;;;;;;;4949205;28;20057;-71
2022/10/12 00:49:46;;;;;;;12.65;3.20;;;;;;;;;;4948125;28;20059;-72
2022/10/12 00:52:14;;;;;;;12.07;2.78;;;;;;;;;;4964398;28;20057;-71
2022/10/12 00:54:44;;;;;;;11.88;2.90;;;;;;;;;;4962799;28;20051;-72
2022/10/12 00:57:13;;;;;;;10.45;2.97;;;;;;;;;;4963148;28;20529;-71
2022/10/12 00:59:43;;;;;;;14.93;2.70;;;;;;;;;;4960315;28;20504;-71
2022/10/12 01:02:11;;;;;;;15.50;2.83;;;;;;;;;;4965768;28;20091;-71
2022/10/12 01:04:38;;;;;;;8.98;2.83;;;;;;;;;;4948482;28;20532;-71
2022/10/12 01:07:05;;;;;;;11.50;3.13;;;;;;;;;;4947417;28;20057;-71
2022/10/12 01:09:33;;;;;;;7.80;2.90;;;;;;;;;;4945265;28;20495;-72
2022/10/12 01:12:04;;;;;;;10.45;3.20;;;;;;;;;;4948057;28;20490;-71
2022/10/12 01:14:31;;;;;;;11.35;3.10;;;;;;;;;;4947974;28;20066;-72
2022/10/12 01:17:00;;;;;;;12.70;3.05;;;;;;;;;;4963993;28;20053;-71
2022/10/12 01:19:38;;;;;;;14.13;3.28;;;;;;;;;;4949155;28;20054;-71
2022/10/12 01:22:07;;;;;;;13.23;3.63;;;;;;;;;;4964176;28;20106;-71
2022/10/12 01:24:50;;;;;;;15.23;3.92;;;;;;;;;;4946670;28;20057;-72
2022/10/12 01:27:36;;;;;;;14.18;4.25;;;;;;;;;;4942675;28;20150;-72
2022/10/12 01:30:12;;;;;;;18.00;4.10;;;;;;;;;;4964156;28;20050;-71
2022/10/12 01:32:47;;;;;;;12.35;3.95;;;;;;;;;;4964439;28;20067;-72
2022/10/12 01:35:17;;;;;;;10.27;3.63;;;;;;;;;;4946712;28;20484;-72
2022/10/12 01:37:47;;;;;;;8.27;3.50;;;;;;;;;;4965551;28;20047;-71
2022/10/12 01:40:16;;;;;;;20.40;4.03;;;;;;;;;;4969794;28;20077;-72
2022/10/12 01:42:45;;;;;;;14.85;3.85;;;;;;;;;;4967099;28;20051;-71
2022/10/12 01:45:15;;;;;;;14.45;4.22;;;;;;;;;;4969397;28;20186;-71
2022/10/12 01:47:43;;;;;;;16.50;4.10;;;;;;;;;;4940635;29;20066;-71
2022/10/12 01:50:12;;;;;;;12.40;3.95;;;;;;;;;;4957266;28;20779;-71
2022/10/12 01:52:42;;;;;;;7.55;3.22;;;;;;;;;;4948536;28;20082;-72
2022/10/12 01:55:18;;;;;;;9.18;3.42;;;;;;;;;;4950412;28;20050;-71
2022/10/12 01:57:51;;;;;;;9.88;4.03;;;;;;;;;;4944042;28;20058;-71
2022/10/12 02:00:20;;;;;;;11.07;4.35;;;;;;;;;;4952975;28;20176;-71
2022/10/12 02:02:51;;;;;;;10.55;3.33;;;;;;;;;;4949420;28;20094;-71
2022/10/12 02:05:23;;;;;;;12.27;3.22;;;;;;;;;;4967228;28;20058;-71
2022/10/12 02:07:53;;;;;;;9.05;3.03;;;;;;;;;;4965175;28;20043;-71
2022/10/12 02:10:24;;;;;;;6.97;3.60;;;;;;;;;;4937321;29;20056;-72
2022/10/12 02:12:52;;;;;;;10.70;3.30;;;;;;;;;;4925762;29;20052;-71
2022/10/12 02:15:22;;;;;;;11.82;3.40;;;;;;;;;;4925256;29;20063;-71
2022/10/12 02:17:51;;;;;;;9.85;3.00;;;;;;;;;;4925200;29;20060;-71
2022/10/12 02:20:21;;;;;;;12.25;3.10;;;;;;;;;;4926664;29;20060;-72
2022/10/12 02:22:49;;;;;;;8.18;3.60;;;;;;;;;;4928293;29;20058;-71
2022/10/12 02:25:19;;;;;;;10.45;2.85;;;;;;;;;;4930763;29;20052;-72
2022/10/12 02:27:48;;;;;;;12.43;3.47;;;;;;;;;;4928627;29;20426;-71
2022/10/12 02:30:15;;;;;;;11.82;3.38;;;;;;;;;;4926105;29;20055;-71
2022/10/12 02:32:49;;;;;;;12.68;3.33;;;;;;;;;;4926034;29;20051;-72
2022/10/12 02:35:20;;;;;;;10.68;3.47;;;;;;;;;;4925561;29;20063;-72
2022/10/12 02:37:49;;;;;;;8.40;3.38;;;;;;;;;;4924857;29;20051;-71
2022/10/12 02:40:18;;;;;;;9.55;3.42;;;;;;;;;;4925961;29;20052;-71
2022/10/12 02:42:49;;;;;;;9.73;3.63;;;;;;;;;;4927481;29;20051;-71
2022/10/12 02:45:17;;;;;;;10.65;3.97;;;;;;;;;;4927062;29;20055;-71
2022/10/12 02:47:47;;;;;;;10.57;3.47;;;;;;;;;;4928536;29;20059;-71
2022/10/12 02:50:16;;;;;;;16.98;3.78;;;;;;;;;;4924480;29;20380;-72
2022/10/12 02:52:43;;;;;;;9.38;3.30;;;;;;;;;;4928764;29;20059;-71
2022/10/12 02:55:11;;;;;;;10.15;3.83;;;;;;;;;;4927282;29;20067;-72
2022/10/12 02:57:38;;;;;;;12.85;3.85;;;;;;;;;;4923219;29;20048;-72
2022/10/12 03:00:06;;;;;;;8.15;2.97;;;;;;;;;;4927785;29;20048;-71
2022/10/12 03:02:33;;;;;;;8.77;3.80;;;;;;;;;;4930135;29;20048;-72
2022/10/12 03:05:02;;;;;;;8.23;3.22;;;;;;;;;;4926511;29;20055;-72
2022/10/12 03:07:29;;;;;;;14.75;3.70;;;;;;;;;;4925031;29;20055;-72
2022/10/12 03:09:56;;;;;;;9.85;3.78;;;;;;;;;;4935195;28;20070;-72
2022/10/12 03:12:23;;;;;;;9.52;3.60;;;;;;;;;;4967788;28;20051;-72
2022/10/12 03:14:51;;;;;;;9.20;3.38;;;;;;;;;;4949440;28;20074;-71
2022/10/12 03:17:18;;;;;;;8.52;3.63;;;;;;;;;;4962345;28;20059;-72
2022/10/12 03:19:45;;;;;;;11.30;3.83;;;;;;;;;;4948837;28;20057;-72
2022/10/12 03:22:14;;;;;;;11.50;3.85;;;;;;;;;;4964514;28;20800;-72
2022/10/12 03:24:41;;;;;;;13.73;3.42;;;;;;;;;;4962581;28;20062;-72
2022/10/12 03:27:08;;;;;;;11.13;3.90;;;;;;;;;;4958927;28;20054;-72
2022/10/12 03:29:35;;;;;;;9.75;4.28;;;;;;;;;;4949797;28;20522;-72
2022/10/12 03:32:03;;;;;;;9.35;4.07;;;;;;;;;;4965058;28;20046;-72
2022/10/12 03:34:30;;;;;;;9.70;3.92;;;;;;;;;;4949890;28;20062;-72
2022/10/12 03:36:57;;;;;;;10.02;3.53;;;;;;;;;;4967184;28;20047;-71
2022/10/12 03:39:26;;;;;;;18.35;3.50;;;;;;;;;;4966317;28;20049;-71
2022/10/12 03:41:53;;;;;;;10.75;4.30;;;;;;;;;;4948139;28;20062;-72
2022/10/12 03:44:20;;;;;;;10.30;3.53;;;;;;;;;;4954521;28;20146;-72
2022/10/12 03:46:47;;;;;;;14.85;4.38;;;;;;;;;;4966177;28;20414;-71
2022/10/12 03:49:14;;;;;;;11.63;3.75;;;;;;;;;;4963760;28;20066;-71
2022/10/12 03:51:42;;;;;;;12.07;3.92;;;;;;;;;;4944679;28;20074;-71
2022/10/12 03:54:09;;;;;;;15.40;4.22;;;;;;;;;;4946357;28;20080;-72
2022/10/12 03:56:37;;;;;;;11.20;3.92;;;;;;;;;;4965696;28;20065;-72
2022/10/12 03:59:05;;;;;;;12.77;4.32;;;;;;;;;;4965668;28;20694;-72
2022/10/12 04:01:32;;;;;;;14.57;3.88;;;;;;;;;;4965700;28;20059;-72
2022/10/12 04:03:59;;;;;;;13.90;3.80;;;;;;;;;;4966513;28;20518;-71
2022/10/12 04:06:26;;;;;;;16.92;4.03;;;;;;;;;;4950913;28;20066;-72
2022/10/12 04:08:53;;;;;;;16.92;4.03;;;;;;;;;;4949215;28;20050;-72
2022/10/12 04:11:21;;;;;;;14.38;3.83;;;;;;;;;;4948978;28;20142;-72
2022/10/12 04:13:49;;;;;;;16.98;4.80;;;;;;;;;;4965901;28;20081;-71
2022/10/12 04:16:16;;;;;;;14.63;4.57;;;;;;;;;;4966398;28;20050;-71
2022/10/12 04:18:44;;;;;;;14.80;4.35;;;;;;;;;;4965963;28;20050;-72
2022/10/12 04:21:13;;;;;;;12.02;4.18;;;;;;;;;;4948569;28;20082;-72
2022/10/12 04:23:40;;;;;;;9.85;3.92;;;;;;;;;;4965288;28;20113;-71
2022/10/12 04:26:08;;;;;;;19.40;4.13;;;;;;;;;;4950985;28;20063;-72
2022/10/12 04:28:35;;;;;;;14.02;3.83;;;;;;;;;;4962007;28;20414;-72
2022/10/12 04:31:04;;;;;;;13.05;3.63;;;;;;;;;;4964255;28;20054;-71
2022/10/12 04:33:31;;;;;;;13.32;3.97;;;;;;;;;;4966165;28;20855;-71
2022/10/12 04:35:58;;;;;;;10.93;4.45;;;;;;;;;;4946440;28;20051;-71
2022/10/12 04:38:26;;;;;;;15.85;4.65;;;;;;;;;;4966335;28;20054;-71
2022/10/12 04:40:53;;;;;;;13.70;4.47;;;;;;;;;;4966205;28;20054;-72
2022/10/12 04:43:20;;;;;;;14.90;4.45;;;;;;;;;;4948116;28;20059;-72
2022/10/12 04:45:54;;;;;;;10.00;4.60;;;;;;;;;;4951389;28;20062;-71
2022/10/12 04:48:22;;;;;;;14.20;5.47;;;;;;;;;;4951537;28;20057;-71
2022/10/12 04:50:50;;;;;;;13.15;6.75;;;;;;;;;;4951050;28;20117;-72
2022/10/12 04:53:17;;;;;;;16.95;6.60;;;;;;;;;;4966744;28;20679;-71
2022/10/12 04:55:44;;;;;;;14.73;7.03;;;;;;;;;;4963359;28;20055;-71
2022/10/12 04:58:11;;;;;;;14.35;7.28;;;;;;;;;;4948631;28;20509;-71
2022/10/12 05:00:39;;;;;;;18.35;7.32;;;;;;;;;;4964804;28;20061;-72
2022/10/12 05:03:06;;;;;;;13.93;6.65;;;;;;;;;;4961597;28;20111;-72
2022/10/12 05:05:35;;;;;;;14.93;6.60;;;;;;;;;;4964755;28;20619;-71
2022/10/12 05:08:02;;;;;;;17.00;6.43;;;;;;;;;;4948930;28;20042;-71
2022/10/12 05:10:29;;;;;;;17.30;6.00;;;;;;;;;;4943746;28;20061;-72
2022/10/12 05:12:57;;;;;;;14.73;5.55;;;;;;;;;;4963046;28;20490;-71
2022/10/12 05:15:24;;;;;;;8.35;5.07;;;;;;;;;;4961674;28;20059;-72
2022/10/12 05:17:51;;;;;;;20.80;5.55;;;;;;;;;;4945192;28;20137;-72
2022/10/12 05:20:18;;;;;;;12.80;5.10;;;;;;;;;;4944344;28;20680;-72
2022/10/12 05:22:47;;;;;;;13.82;4.75;;;;;;;;;;4941725;28;20058;-71
2022/10/12 05:25:14;;;;;;;16.15;5.55;;;;;;;;;;4945189;28;20059;-71
2022/10/12 05:27:41;;;;;;;14.32;5.05;;;;;;;;;;4962388;28;20094;-72
2022/10/12 05:30:09;;;;;;;17.30;5.07;;;;;;;;;;4943424;28;20054;-71
2022/10/12 05:32:37;;;;;;;13.18;5.28;;;;;;;;;;4944304;28;20403;-71
2022/10/12 05:35:04;;;;;;;12.43;5.80;;;;;;;;;;4962958;28;20051;-72
2022/10/12 05:37:33;;;;;;;17.17;5.63;;;;;;;;;;4947550;28;20074;-71
2022/10/12 05:40:01;;;;;;;11.60;5.05;;;;;;;;;;4947713;28;20042;-71
2022/10/12 05:42:28;;;;;;;22.42;5.50;;;;;;;;;;4945767;28;20126;-71
2022/10/12 05:44:59;;;;;;;14.40;5.18;;;;;;;;;;4449739;28;21698;-72
2022/10/12 05:47:44;;;;;;;9.95;4.60;;;;;;;;;;2843033;28;22129;-72
2022/10/12 05:50:17;;;;;;;16.15;5.18;;;;;;;;;;3614347;28;20058;-73
2022/10/12 05:52:45;;;;;;;16.88;4.93;;;;;;;;;;3543023;28;20062;-73
2022/10/12 05:55:15;;;;;;;19.50;5.50;;;;;;;;;;3250329;28;22147;-73
2022/10/12 05:57:48;;;;;;;12.45;5.30;;;;;;;;;;3694092;28;20380;-72
2022/10/12 06:00:20;;;;;;;15.20;5.88;;;;;;;;;;3353732;28;21252;-73
2022/10/12 06:02:50;;;;;;;12.65;5.00;;;;;;;;;;3003764;28;22165;-73
2022/10/12 06:05:21;;;;;;;20.88;5.22;;;;;;;;;;3474231;28;20154;-73
2022/10/12 06:07:53;;;;;;;17.75;4.45;;;;;;;;;;3008691;28;23340;-73
2022/10/12 06:10:22;;;;;;;18.58;5.28;;;;;;;;;;3145933;28;21219;-72
2022/10/12 06:12:49;;;;;;;21.27;5.22;;;;;;;;;;4920728;29;20056;-71
2022/10/12 06:15:17;;;;;;;17.50;5.05;;;;;;;;;;4926973;29;21170;-72
2022/10/12 06:17:44;;;;;;;16.35;5.07;;;;;;;;;;4921314;29;20072;-71
2022/10/12 06:20:11;;;;;;;22.00;4.88;;;;;;;;;;4925833;29;20052;-71
2022/10/12 06:22:39;;;;;;;19.20;5.03;;;;;;;;;;4925499;29;20410;-72
2022/10/12 06:25:06;;;;;;;15.48;5.13;;;;;;;;;;4930533;29;20063;-71
2022/10/12 06:27:35;;;;;;;12.52;4.95;;;;;;;;;;4928715;29;20062;-71
2022/10/12 06:30:02;;;;;;;20.73;5.70;;;;;;;;;;4926299;29;20491;-71
2022/10/12 06:32:29;;;;;;;17.65;6.30;;;;;;;;;;4924676;29;20051;-71
2022/10/12 06:34:57;;;;;;;15.93;6.50;;;;;;;;;;4928868;29;20056;-71
2022/10/12 06:37:24;;;;;;;18.80;6.63;;;;;;;;;;4929126;29;20047;-71
2022/10/12 06:39:51;;;;;;;16.67;6.50;;;;;;;;;;4927997;29;20522;-71
2022/10/12 06:42:18;;;;;;;20.65;6.20;;;;;;;;;;4926777;29;20051;-71
2022/10/12 06:44:47;;;;;;;13.52;6.35;;;;;;;;;;4920238;29;20166;-71
2022/10/12 06:47:14;;;;;;;22.48;6.85;;;;;;;;;;4928366;29;20055;-71
2022/10/12 06:49:41;;;;;;;25.77;6.72;;;;;;;;;;4927761;29;20047;-71
2022/10/12 06:52:08;;;;;;;28.13;6.68;;;;;;;;;;4928243;29;20074;-71
2022/10/12 06:54:35;;;;;;;30.33;8.52;;;;;;;;;;4929375;29;20040;-71
2022/10/12 06:57:03;;;;;;;28.17;9.05;;;;;;;;;;4927814;29;20055;-71
2022/10/12 06:59:30;;;;;;;22.60;10.32;;;;;;;;;;4928539;29;20059;-72
2022/10/12 07:01:58;;;;;;;28.20;11.10;;;;;;;;;;4927683;29;20087;-71
2022/10/12 07:04:26;;;;;;;27.13;12.38;;;;;;;;;;4924108;29;20063;-71
2022/10/12 07:06:53;;;;;;;29.30;12.07;;;;;;;;;;4928482;29;20062;-71
2022/10/12 07:09:20;;;;;;;27.17;10.40;;;;;;;;;;4925440;29;20056;-71
2022/10/12 07:11:47;;;;;;;17.58;8.35;;;;;;;;;;4929978;29;20784;-71
2022/10/12 07:14:15;;;;;;;22.80;9.25;;;;;;;;;;4925849;29;20074;-71
2022/10/12 07:16:42;;;;;;;21.70;8.10;;;;;;;;;;4929549;29;20683;-71
2022/10/12 07:19:10;;;;;;;28.58;8.50;;;;;;;;;;4925168;29;20059;-71
2022/10/12 07:21:38;;;;;;;18.23;7.28;;;;;;;;;;4922954;29;20082;-72
2022/10/12 07:24:05;;;;;;;23.75;9.38;;;;;;;;;;4929589;29;20514;-71
2022/10/12 07:26:32;;;;;;;22.60;7.93;;;;;;;;;;4929270;29;20058;-72
2022/10/12 07:29:01;;;;;;;24.08;7.85;;;;;;;;;;4924579;29;20051;-72
2022/10/12 07:31:28;;;;;;;19.27;6.68;;;;;;;;;;4925332;29;20562;-72
2022/10/12 07:33:55;;;;;;;26.15;7.18;;;;;;;;;;4927411;29;20058;-72
2022/10/12 07:36:24;;;;;;;20.33;6.68;;;;;;;;;;4924878;29;20060;-72
2022/10/12 07:38:51;;;;;;;29.90;7.07;;;;;;;;;;4927015;29;20056;-72
2022/10/12 07:41:18;;;;;;;25.63;6.55;;;;;;;;;;4928688;29;20052;-72
2022/10/12 07:43:46;;;;;;;20.92;6.78;;;;;;;;;;4927245;29;20118;-72
2022/10/12 07:46:13;;;;;;;21.58;6.22;;;;;;;;;;4927321;29;20055;-72
2022/10/12 07:48:40;;;;;;;22.98;5.72;;;;;;;;;;4926964;29;20059;-72
2022/10/12 07:51:09;;;;;;;23.08;6.05;;;;;;;;;;4923657;29;20089;-72
2022/10/12 07:53:38;;;;;;;22.70;5.50;;;;;;;;;;4927337;29;20060;-72
2022/10/12 07:56:08;;;;;;;16.65;5.15;;;;;;;;;;4927978;29;20060;-72
2022/10/12 07:58:35;;;;;;;24.85;6.07;;;;;;;;;;4925578;29;20123;-72
2022/10/12 08:01:05;;;;;;;22.77;7.00;;;;;;;;;;4927450;29;20050;-72
2022/10/12 08:03:32;;;;;;;27.38;6.25;;;;;;;;;;4927511;29;20499;-72
2022/10/12 08:05:59;;;;;;;16.23;5.65;;;;;;;;;;4926352;29;20062;-72
2022/10/12 08:08:26;;;;;;;22.00;6.78;;;;;;;;;;4928936;29;20051;-72
2022/10/12 08:10:56;;;;;;;23.23;7.03;;;;;;;;;;4943462;28;20057;-72
2022/10/12 08:13:23;;;;;;;19.45;6.00;;;;;;;;;;4966480;28;20051;-72
2022/10/12 08:15:51;;;;;;;24.02;5.50;;;;;;;;;;4964392;28;20122;-72
2022/10/12 08:18:18;;;;;;;15.55;5.90;;;;;;;;;;4947576;28;20518;-73
2022/10/12 08:20:45;;;;;;;19.58;5.72;;;;;;;;;;4964396;28;20062;-72
2022/10/12 08:23:12;;;;;;;16.83;5.75;;;;;;;;;;4958388;28;20077;-72
2022/10/12 08:25:40;;;;;;;16.50;5.25;;;;;;;;;;4948928;28;20055;-72
2022/10/12 08:28:08;;;;;;;19.73;5.70;;;;;;;;;;4951139;28;20055;-72
2022/10/12 08:30:35;;;;;;;18.38;5.20;;;;;;;;;;4949080;28;20192;-72
2022/10/12 08:33:04;;;;;;;20.48;5.13;;;;;;;;;;4950573;28;20101;-72
2022/10/12 08:35:31;;;;;;;20.27;4.75;;;;;;;;;;4948619;28;20875;-72
2022/10/12 08:37:58;;;;;;;16.95;4.85;;;;;;;;;;4966658;28;20057;-72
2022/10/12 08:40:27;;;;;;;17.95;4.20;;;;;;;;;;4966335;28;20050;-72
2022/10/12 08:42:57;;;;;;;17.17;4.28;;;;;;;;;;4948889;28;20145;-72
2022/10/12 08:45:39;;;;;;;18.35;4.45;;;;;;;;;;4964331;28;20486;-72
2022/10/12 08:48:10;;;;;;;21.80;4.22;;;;;;;;;;4959404;28;20054;-72
2022/10/12 08:50:40;;;;;;;18.92;4.30;;;;;;;;;;4947692;28;20450;-72
2022/10/12 08:53:12;;;;;;;15.32;3.97;;;;;;;;;;4945991;28;20623;-72
2022/10/12 08:55:42;;;;;;;18.50;3.63;;;;;;;;;;4945276;28;20059;-72
2022/10/12 08:58:14;;;;;;;20.60;3.80;;;;;;;;;;4939854;28;20104;-71
2022/10/12 09:00:43;;;;;;;17.77;3.65;;;;;;;;;;4961135;28;20058;-71
2022/10/12 09:03:15;;;;;;;14.15;3.50;;;;;;;;;;4961012;28;20055;-72
2022/10/12 09:05:45;;;;;;;17.92;3.10;;;;;;;;;;4963647;28;20062;-72
2022/10/12 09:08:15;;;;;;;11.70;3.88;;;;;;;;;;4946243;28;20046;-72
2022/10/12 09:10:45;;;;;;;15.13;2.88;;;;;;;;;;4946116;28;20062;-72
2022/10/12 09:13:16;;;;;;;16.20;3.10;;;;;;;;;;4949724;28;20054;-72
2022/10/12 09:15:48;;;;;;;14.63;3.50;;;;;;;;;;4946912;28;20050;-71
2022/10/12 09:18:17;;;;;;;17.60;3.25;;;;;;;;;;4961349;28;20043;-72
2022/10/12 09:20:47;;;;;;;17.88;2.90;;;;;;;;;;4947819;28;20133;-71
2022/10/12 09:23:21;;;;;;;15.18;3.47;;;;;;;;;;4953209;28;20049;-72
2022/10/12 09:25:49;;;;;;;14.68;3.03;;;;;;;;;;4941289;28;20059;-71
2022/10/12 09:28:17;;;;;;;17.58;3.15;;;;;;;;;;4966127;28;20054;-72
2022/10/12 09:30:47;;;;;;;12.77;2.50;;;;;;;;;;4965058;28;20042;-72
2022/10/12 09:33:18;;;;;;;14.63;3.03;;;;;;;;;;4956785;28;20358;-72
2022/10/12 09:35:46;;;;;;;12.13;2.30;;;;;;;;;;4947602;28;20051;-71
2022/10/12 09:38:14;;;;;;;21.02;2.53;;;;;;;;;;4947767;28;20069;-71
2022/10/12 09:40:41;;;;;;;12.55;2.30;;;;;;;;;;4965525;28;20047;-71
2022/10/12 09:43:09;;;;;;;8.95;2.60;;;;;;;;;;4948526;28;20054;-72
2022/10/12 09:45:36;;;;;;;9.80;2.50;;;;;;;;;;4961288;28;20105;-72
2022/10/12 09:48:12;;;;;;;15.55;2.90;;;;;;;;;;4962457;28;20109;-72
2022/10/12 09:50:40;;;;;;;21.00;2.72;;;;;;;;;;4963155;28;20485;-71
2022/10/12 09:53:13;;;;;;;15.48;2.70;;;;;;;;;;4964769;28;20501;-72
2022/10/12 09:55:40;;;;;;;14.43;2.92;;;;;;;;;;4964308;28;20061;-72
2022/10/12 09:58:17;;;;;;;15.73;2.78;;;;;;;;;;4948834;28;20058;-71
2022/10/12 10:00:44;;;;;;;15.60;2.72;;;;;;;;;;4963928;28;20053;-72
2022/10/12 10:03:23;;;;;;;17.95;3.20;;;;;;;;;;4963317;28;20057;-72
2022/10/12 10:06:03;;;;;;;20.48;3.35;;;;;;;;;;4967465;28;20093;-71
2022/10/12 10:08:39;;;;;;;14.65;2.35;;;;;;;;;;4969837;28;20050;-72
2022/10/12 10:11:13;;;;;;;15.65;2.67;;;;;;;;;;4968737;28;20058;-72
2022/10/12 10:13:45;;;;;;;19.90;2.50;;;;;;;;;;4949526;28;20810;-72
2022/10/12 10:16:12;;;;;;;16.92;3.10;;;;;;;;;;4963976;28;20055;-71
2022/10/12 10:18:42;;;;;;;18.92;2.63;;;;;;;;;;4962476;28;20058;-71
2022/10/12 10:21:12;;;;;;;18.67;2.90;;;;;;;;;;4948525;28;20043;-71
2022/10/12 10:23:41;;;;;;;19.60;3.13;;;;;;;;;;4950239;28;20055;-72
2022/10/12 10:26:09;;;;;;;22.60;2.78;;;;;;;;;;4968975;28;20058;-72
2022/10/12 10:28:37;;;;;;;21.13;2.80;;;;;;;;;;4966905;28;20046;-71
2022/10/12 10:31:05;;;;;;;24.98;2.92;;;;;;;;;;4967072;28;20042;-71
2022/10/12 10:34:11;;;;;;;13.38;2.65;;;;;;;;;;4966286;28;20062;-71
2022/10/12 10:36:57;;;;;;;21.50;4.70;;;;;;;;;;4966913;28;20084;-72
2022/10/12 10:39:46;;;;;;;16.13;2.90;;;;;;;;;;4968231;28;20101;-71
2022/10/12 10:42:33;;;;;;;17.60;2.38;;;;;;;;;;4966445;28;20053;-72
2022/10/12 10:45:24;;;;;;;17.65;3.35;;;;;;;;;;4966517;28;20265;-72
2022/10/12 10:48:10;;;;;;;16.38;2.83;;;;;;;;;;4966727;28;20073;-72
2022/10/12 10:50:40;;;;;;;13.63;2.60;;;;;;;;;;4945620;28;20554;-72
2022/10/12 10:53:13;;;;;;;13.90;2.28;;;;;;;;;;4948998;28;20727;-72
2022/10/12 10:55:45;;;;;;;16.40;2.15;;;;;;;;;;4949695;28;20061;-71
2022/10/12 10:58:18;;;;;;;14.05;2.60;;;;;;;;;;4962816;28;20596;-72
2022/10/12 11:00:46;;;;;;;16.13;2.33;;;;;;;;;;4945617;28;20046;-70
2022/10/12 11:03:17;;;;;;;18.67;2.50;;;;;;;;;;4966453;28;20054;-69
2022/10/12 11:05:50;;;;;;;13.38;2.50;;;;;;;;;;4966242;28;20512;-70
2022/10/12 11:08:20;;;;;;;14.73;2.40;;;;;;;;;;4966810;28;20054;-72
2022/10/12 11:10:49;;;;;;;20.30;2.55;;;;;;;;;;4937248;28;20059;-72
2022/10/12 11:13:18;;;;;;;17.13;2.53;;;;;;;;;;4924054;29;20055;-72
2022/10/12 11:15:49;;;;;;;16.52;2.00;;;;;;;;;;4921844;29;20067;-71
2022/10/12 11:18:18;;;;;;;14.88;1.92;;;;;;;;;;4925123;29;20093;-71
2022/10/12 11:20:53;;;;;;;13.88;3.15;;;;;;;;;;4926981;29;20118;-72
2022/10/12 11:23:26;;;;;;;16.85;2.08;;;;;;;;;;4927261;29;20466;-72
2022/10/12 11:25:59;;;;;;;14.35;2.10;;;;;;;;;;4928311;29;20055;-72
2022/10/12 11:28:26;;;;;;;;;;;;;;;;;;4929603;29;20090;-73
2022/10/12 11:30:54;;;;;;;15.68;1.92;;;;;;;;;;4925243;29;19922;-73
2022/10/12 11:33:23;;;;;;;16.95;2.50;;;;;;;;;;4926672;29;20170;-75
2022/10/12 11:35:53;;;;;;;13.18;1.85;;;;;;;;;;4925721;29;20063;-74
2022/10/12 11:38:22;;;;;;;13.65;2.35;;;;;;;;;;4926082;29;20538;-71
2022/10/12 11:40:52;;;;;;;19.85;2.33;;;;;;;;;;4926283;29;20064;-71
2022/10/12 11:43:21;;;;;;;18.13;2.17;;;;;;;;;;4926644;29;20059;-72
2022/10/12 11:45:51;;;;;;;21.77;2.25;;;;;;;;;;4923604;29;20058;-73
2022/10/12 11:48:21;;;;;;;11.85;2.13;;;;;;;;;;4925913;29;20059;-73
2022/10/12 11:50:49;;;;;;;13.15;2.30;;;;;;;;;;4927335;29;20058;-72
2022/10/12 11:53:22;;;;;;;16.40;2.30;;;;;;;;;;4923554;29;20468;-72
2022/10/12 11:56:04;;;;;;;13.43;2.03;;;;;;;;;;4389660;29;20043;-72
2022/10/12 11:58:32;;;;;;;9.85;2.03;;;;;;;;;;4922858;29;20056;-72
2022/10/12 12:01:07;;;;;;;16.52;2.65;;;;;;;;;;4925819;29;20047;-72
2022/10/12 12:03:39;;;;;;;10.80;2.33;;;;;;;;;;4924282;29;20521;-72
2022/10/12 12:06:25;;;;;;;15.45;3.03;;;;;;;;;;4923046;29;20803;-71
2022/10/12 12:09:07;;;;;;;15.32;2.30;;;;;;;;;;4927131;29;20056;-72
2022/10/12 12:11:34;;;;;;;16.02;2.25;;;;;;;;;;4924076;29;20048;-71
2022/10/12 12:14:16;;;;;;;15.73;2.13;;;;;;;;;;4925557;29;20052;-72
2022/10/12 12:16:44;;;;;;;13.70;1.90;;;;;;;;;;4911080;29;20047;-72
2022/10/12 12:19:14;;;;;;;13.38;2.20;;;;;;;;;;4928933;29;20048;-72
2022/10/12 12:21:59;;;;;;;13.07;2.03;;;;;;;;;;4920616;29;20048;-72
2022/10/12 12:24:28;;;;;;;12.35;2.53;;;;;;;;;;4921252;29;20119;-72
2022/10/12 12:26:55;;;;;;;11.60;2.00;;;;;;;;;;4925504;29;20066;-72
2022/10/12 12:29:26;;;;;;;11.95;2.67;;;;;;;;;;4926742;29;20070;-72
2022/10/12 12:31:55;;;;;;;12.70;1.92;;;;;;;;;;4924534;29;20047;-73
2022/10/12 12:34:23;;;;;;;11.70;2.28;;;;;;;;;;4925108;29;20079;-72
2022/10/12 12:36:51;;;;;;;9.45;2.22;;;;;;;;;;4922990;29;20063;-72
2022/10/12 12:39:22;;;;;;;15.68;2.10;;;;;;;;;;4925722;29;20880;-72
2022/10/12 12:41:51;;;;;;;11.98;2.20;;;;;;;;;;4926465;29;20086;-72
2022/10/12 12:44:36;;;;;;;11.43;2.22;;;;;;;;;;4926787;29;20491;-73
2022/10/12 12:47:18;;;;;;;13.85;2.20;;;;;;;;;;4928680;29;20429;-72
2022/10/12 12:49:47;;;;;;;10.70;2.03;;;;;;;;;;4927181;29;20051;-73
2022/10/12 12:52:18;;;;;;;11.38;2.50;;;;;;;;;;4926474;29;20060;-74
2022/10/12 12:54:52;;;;;;;13.68;2.60;;;;;;;;;;4922908;29;20060;-72
2022/10/12 12:57:34;;;;;;;11.55;2.47;;;;;;;;;;4923886;29;20078;-73
2022/10/12 13:00:09;;;;;;;13.50;2.75;;;;;;;;;;4921569;29;20052;-73
2022/10/12 13:02:54;;;;;;;17.73;2.63;;;;;;;;;;4924110;29;20183;-73
2022/10/12 13:05:55;;;;;;;12.30;2.28;;;;;;;;;;4915226;29;20055;-73
2022/10/12 13:08:27;;;;;;;12.73;3.05;;;;;;;;;;4834820;29;20065;-73
2022/10/12 13:11:05;;;;;;;11.88;2.88;;;;;;;;;;4850522;29;20559;-72
2022/10/12 13:13:42;;;;;;;12.02;2.42;;;;;;;;;;4930989;28;20069;-73
2022/10/12 13:16:16;;;;;;;10.43;2.65;;;;;;;;;;4966957;28;20047;-73
2022/10/12 13:18:52;;;;;;;11.32;2.65;;;;;;;;;;4965484;28;20383;-72
2022/10/12 13:21:20;;;;;;;11.50;2.20;;;;;;;;;;4966661;28;20059;-75
2022/10/12 13:23:50;;;;;;;16.52;2.60;;;;;;;;;;4964592;28;20077;-74
2022/10/12 13:26:19;;;;;;;12.27;2.60;;;;;;;;;;4965599;28;20051;-74
2022/10/12 13:28:49;;;;;;;10.57;2.17;;;;;;;;;;4950968;28;20046;-74
2022/10/12 13:31:18;;;;;;;16.38;2.88;;;;;;;;;;4947974;28;20635;-74
2022/10/12 13:33:49;;;;;;;12.68;3.33;;;;;;;;;;4970303;28;20065;-73
2022/10/12 13:36:20;;;;;;;11.82;2.22;;;;;;;;;;4972406;28;20168;-73
2022/10/12 13:38:48;;;;;;;14.80;2.95;;;;;;;;;;4966203;28;20391;-74
2022/10/12 13:41:16;;;;;;;10.55;2.67;;;;;;;;;;4971809;28;20047;-73
2022/10/12 13:43:45;;;;;;;13.63;2.60;;;;;;;;;;4964381;28;20070;-74
2022/10/12 13:46:15;;;;;;;8.77;2.30;;;;;;;;;;4968231;28;20054;-74
2022/10/12 13:48:48;;;;;;;13.25;2.42;;;;;;;;;;4970328;28;20501;-74
2022/10/12 13:51:23;;;;;;;13.35;2.92;;;;;;;;;;4966660;28;20580;-74
2022/10/12 13:53:50;;;;;;;11.68;3.13;;;;;;;;;;4969575;28;20047;-74
2022/10/12 13:56:18;;;;;;;12.88;3.20;;;;;;;;;;4970313;28;20545;-74
2022/10/12 13:58:46;;;;;;;14.52;3.22;;;;;;;;;;4952298;28;20058;-74
2022/10/12 14:01:14;;;;;;;14.73;3.10;;;;;;;;;;4969755;28;20055;-74
2022/10/12 14:03:43;;;;;;;12.48;2.17;;;;;;;;;;4969957;28;20055;-74
2022/10/12 14:06:24;;;;;;;14.13;2.55;;;;;;;;;;4968914;28;20051;-73
2022/10/12 14:08:52;;;;;;;12.02;2.85;;;;;;;;;;4955939;28;20082;-74
2022/10/12 14:11:19;;;;;;;22.70;3.08;;;;;;;;;;4972418;28;20749;-73
2022/10/12 14:13:47;;;;;;;14.40;2.72;;;;;;;;;;4970189;28;20047;-74
2022/10/12 14:16:15;;;;;;;16.67;2.60;;;;;;;;;;4972526;28;20401;-74
2022/10/12 14:18:44;;;;;;;13.38;2.83;;;;;;;;;;4970871;28;20050;-74
2022/10/12 14:21:13;;;;;;;15.85;3.25;;;;;;;;;;4956262;28;20534;-74
2022/10/12 14:23:45;;;;;;;8.10;2.70;;;;;;;;;;4969803;28;20139;-74
2022/10/12 14:26:21;;;;;;;11.85;3.70;;;;;;;;;;4969637;28;20039;-73
2022/10/12 14:28:48;;;;;;;14.00;2.72;;;;;;;;;;4971218;28;20057;-74
2022/10/12 14:31:17;;;;;;;11.70;2.95;;;;;;;;;;4971200;28;20055;-74
2022/10/12 14:33:44;;;;;;;17.85;3.20;;;;;;;;;;4971595;28;20050;-74
2022/10/12 14:36:15;;;;;;;14.05;3.60;;;;;;;;;;4972276;28;20704;-74
2022/10/12 14:38:43;;;;;;;16.67;4.95;;;;;;;;;;4971413;28;20058;-75
2022/10/12 14:41:29;;;;;;;18.88;5.38;;;;;;;;;;4957540;28;20054;-74
2022/10/12 14:44:06;;;;;;;17.15;3.88;;;;;;;;;;4968245;28;20046;-74
2022/10/12 14:46:35;;;;;;;12.65;2.90;;;;;;;;;;4966628;28;20063;-74